Portada
METAR-TAF:

METAR-TAF

Aeroports :

Haifa, Israel

latitud: 32-48N, longitud: 035-02E, altitud: 8 m

Observació

L'informe es va fer fa 50 minuts, a les 06:50 UTC
Vent 2 kt amb direcció variable
Temperatura 12°C
Humitat 88%
Pressió 1008 hPa
Visibilitat 10 km o més
Escasses núvols a una alçada de 2500 ft

METAR: LLHA 310650Z VRB02KT 9999 FEW025 12/10 Q1008 RMK BKN060

Hora: 09:40 (07:40 UTC)

Pronòstic

L'informe es va fer fa 2 hores i 37 minuts, a les 05:03 UTC
Pronòstic vàlid del 31 a les 06 UTC al 01 a les 06 UTC
Vent 8 kt del Oest/Sud-Oest
Visibilitat 10 km o més
Núvols disperses a una alçada de 3000 ft
Temporalment
l' 31 a les 06 UTC al 01 a les 06 UTC
Vent 15 kt del Oest amb ràfegues de 25 kt
Visibilitat: 5000 m
Escasses núvols a una alçada de 2000 ft, Cumulonimbus.
Cel ennuvolat a una alçada de 2500 ft
tempesta, pluja

TAF: LLHA 310503Z 3106/0106 24008KT 9999 SCT030 TEMPO 3106/0106 27015G25KT 5000 TSRA FEW020CB BKN025 TX15/3111Z TN11/0104Z

Observacions i pronòstics meteorològics de més de 4000 aeroports (METAR i TAF).

Les estacions disponibles són els punts grocs i vermells al mapa.

Posi el ratolí al punt desitjat per veure el nom de l'estació.

Feu clic per veure les observacions i els pronòstics meteorològics.

Per canviar el mapa: feu clic els botons verds amb una creu de color negre per apropar; al botó verd amb un guió per allunyar la imatge; o en les fletxes verdes per a mapes adjacents.


METAR-TAF: